sensor_id;sensor_type;location;lat;lon;timestamp;P1;durP1;ratioP1;P2;durP2;ratioP2
21697;SDS011;11010;49.548;11.926;2022-10-29T00:01:14;10.27;;;3.27;;
21697;SDS011;11010;49.548;11.926;2022-10-29T00:03:42;7.50;;;2.70;;
21697;SDS011;11010;49.548;11.926;2022-10-29T00:06:10;8.87;;;2.77;;
21697;SDS011;11010;49.548;11.926;2022-10-29T00:08:37;10.23;;;2.80;;
21697;SDS011;11010;49.548;11.926;2022-10-29T00:11:06;11.13;;;2.83;;
21697;SDS011;11010;49.548;11.926;2022-10-29T00:13:34;8.87;;;3.00;;
21697;SDS011;11010;49.548;11.926;2022-10-29T00:16:06;9.63;;;2.87;;
21697;SDS011;11010;49.548;11.926;2022-10-29T00:18:33;7.97;;;2.77;;
21697;SDS011;11010;49.548;11.926;2022-10-29T00:21:01;9.43;;;2.77;;
21697;SDS011;11010;49.548;11.926;2022-10-29T00:23:29;8.70;;;2.80;;
21697;SDS011;11010;49.548;11.926;2022-10-29T00:25:57;9.97;;;2.90;;
21697;SDS011;11010;49.548;11.926;2022-10-29T00:28:25;9.03;;;2.77;;
21697;SDS011;11010;49.548;11.926;2022-10-29T00:30:52;8.77;;;2.77;;
21697;SDS011;11010;49.548;11.926;2022-10-29T00:33:19;10.67;;;3.10;;
21697;SDS011;11010;49.548;11.926;2022-10-29T00:36:21;8.83;;;2.60;;
21697;SDS011;11010;49.548;11.926;2022-10-29T00:38:41;10.80;;;3.43;;
21697;SDS011;11010;49.548;11.926;2022-10-29T00:41:10;9.87;;;2.70;;
21697;SDS011;11010;49.548;11.926;2022-10-29T00:43:39;12.07;;;3.33;;
21697;SDS011;11010;49.548;11.926;2022-10-29T00:48:35;10.77;;;3.33;;
21697;SDS011;11010;49.548;11.926;2022-10-29T00:51:05;7.70;;;2.70;;
21697;SDS011;11010;49.548;11.926;2022-10-29T00:53:36;9.87;;;3.07;;
21697;SDS011;11010;49.548;11.926;2022-10-29T00:56:04;10.37;;;3.30;;
21697;SDS011;11010;49.548;11.926;2022-10-29T00:58:32;8.73;;;3.03;;
21697;SDS011;11010;49.548;11.926;2022-10-29T01:00:59;9.63;;;2.80;;
21697;SDS011;11010;49.548;11.926;2022-10-29T01:03:27;10.20;;;2.90;;
21697;SDS011;11010;49.548;11.926;2022-10-29T01:05:54;8.70;;;2.97;;
21697;SDS011;11010;49.548;11.926;2022-10-29T01:08:22;9.53;;;2.93;;
21697;SDS011;11010;49.548;11.926;2022-10-29T01:11:13;9.13;;;2.90;;
21697;SDS011;11010;49.548;11.926;2022-10-29T01:21:44;9.30;;;2.83;;
21697;SDS011;11010;49.548;11.926;2022-10-29T01:32:00;9.63;;;3.03;;
21697;SDS011;11010;49.548;11.926;2022-10-29T01:34:50;8.13;;;3.10;;
21697;SDS011;11010;49.548;11.926;2022-10-29T01:37:35;8.60;;;2.77;;
21697;SDS011;11010;49.548;11.926;2022-10-29T01:40:09;9.33;;;3.13;;
21697;SDS011;11010;49.548;11.926;2022-10-29T01:42:39;11.43;;;2.80;;
21697;SDS011;11010;49.548;11.926;2022-10-29T01:47:59;10.40;;;2.67;;
21697;SDS011;11010;49.548;11.926;2022-10-29T01:50:28;9.17;;;2.80;;
21697;SDS011;11010;49.548;11.926;2022-10-29T01:52:55;9.27;;;3.10;;
21697;SDS011;11010;49.548;11.926;2022-10-29T01:55:28;8.20;;;2.80;;
21697;SDS011;11010;49.548;11.926;2022-10-29T01:57:56;9.63;;;2.80;;
21697;SDS011;11010;49.548;11.926;2022-10-29T02:00:25;11.00;;;3.20;;
21697;SDS011;11010;49.548;11.926;2022-10-29T02:03:05;10.80;;;2.90;;
21697;SDS011;11010;49.548;11.926;2022-10-29T02:05:38;9.47;;;3.20;;
21697;SDS011;11010;49.548;11.926;2022-10-29T02:13:43;9.03;;;2.80;;
21697;SDS011;11010;49.548;11.926;2022-10-29T02:16:12;9.07;;;3.17;;
21697;SDS011;11010;49.548;11.926;2022-10-29T02:18:47;8.67;;;2.70;;
21697;SDS011;11010;49.548;11.926;2022-10-29T02:21:16;9.23;;;2.80;;
21697;SDS011;11010;49.548;11.926;2022-10-29T02:23:44;11.07;;;3.03;;
21697;SDS011;11010;49.548;11.926;2022-10-29T02:26:12;9.13;;;2.90;;
21697;SDS011;11010;49.548;11.926;2022-10-29T02:28:41;11.77;;;3.00;;
21697;SDS011;11010;49.548;11.926;2022-10-29T02:31:09;8.80;;;3.10;;
21697;SDS011;11010;49.548;11.926;2022-10-29T02:33:37;8.27;;;2.60;;
21697;SDS011;11010;49.548;11.926;2022-10-29T02:36:05;12.27;;;2.73;;
21697;SDS011;11010;49.548;11.926;2022-10-29T02:38:33;9.50;;;3.20;;
21697;SDS011;11010;49.548;11.926;2022-10-29T02:41:01;10.43;;;3.27;;
21697;SDS011;11010;49.548;11.926;2022-10-29T02:43:29;10.10;;;3.13;;
21697;SDS011;11010;49.548;11.926;2022-10-29T02:46:16;9.23;;;3.03;;
21697;SDS011;11010;49.548;11.926;2022-10-29T02:48:45;9.10;;;2.97;;
21697;SDS011;11010;49.548;11.926;2022-10-29T02:51:13;10.60;;;3.03;;
21697;SDS011;11010;49.548;11.926;2022-10-29T02:53:41;8.53;;;2.87;;
21697;SDS011;11010;49.548;11.926;2022-10-29T02:56:09;9.20;;;2.80;;
21697;SDS011;11010;49.548;11.926;2022-10-29T02:58:37;9.43;;;2.80;;
21697;SDS011;11010;49.548;11.926;2022-10-29T03:01:05;9.87;;;2.73;;
21697;SDS011;11010;49.548;11.926;2022-10-29T03:03:33;10.33;;;2.97;;
21697;SDS011;11010;49.548;11.926;2022-10-29T03:06:01;9.87;;;2.93;;
21697;SDS011;11010;49.548;11.926;2022-10-29T03:08:29;10.30;;;3.17;;
21697;SDS011;11010;49.548;11.926;2022-10-29T03:10:57;9.13;;;2.83;;
21697;SDS011;11010;49.548;11.926;2022-10-29T03:13:25;9.67;;;3.00;;
21697;SDS011;11010;49.548;11.926;2022-10-29T03:15:53;9.53;;;3.20;;
21697;SDS011;11010;49.548;11.926;2022-10-29T03:18:21;8.87;;;2.70;;
21697;SDS011;11010;49.548;11.926;2022-10-29T03:20:49;10.00;;;3.20;;
21697;SDS011;11010;49.548;11.926;2022-10-29T03:23:17;9.20;;;2.80;;
21697;SDS011;11010;49.548;11.926;2022-10-29T03:25:48;10.10;;;2.63;;
21697;SDS011;11010;49.548;11.926;2022-10-29T03:28:22;10.50;;;2.77;;
21697;SDS011;11010;49.548;11.926;2022-10-29T03:30:53;9.10;;;2.97;;
21697;SDS011;11010;49.548;11.926;2022-10-29T03:33:21;11.10;;;2.93;;
21697;SDS011;11010;49.548;11.926;2022-10-29T03:35:49;12.30;;;3.00;;
21697;SDS011;11010;49.548;11.926;2022-10-29T03:38:17;10.23;;;3.10;;
21697;SDS011;11010;49.548;11.926;2022-10-29T03:40:45;9.27;;;2.80;;
21697;SDS011;11010;49.548;11.926;2022-10-29T03:43:12;9.97;;;3.03;;
21697;SDS011;11010;49.548;11.926;2022-10-29T03:45:40;8.67;;;2.70;;
21697;SDS011;11010;49.548;11.926;2022-10-29T03:48:08;9.97;;;2.93;;
21697;SDS011;11010;49.548;11.926;2022-10-29T03:50:36;11.03;;;2.97;;
21697;SDS011;11010;49.548;11.926;2022-10-29T03:53:04;9.73;;;3.07;;
21697;SDS011;11010;49.548;11.926;2022-10-29T03:55:32;9.30;;;3.07;;
21697;SDS011;11010;49.548;11.926;2022-10-29T03:58:00;9.43;;;2.73;;
21697;SDS011;11010;49.548;11.926;2022-10-29T04:00:28;9.97;;;2.87;;
21697;SDS011;11010;49.548;11.926;2022-10-29T04:02:56;8.27;;;3.07;;
21697;SDS011;11010;49.548;11.926;2022-10-29T04:05:24;10.53;;;3.27;;
21697;SDS011;11010;49.548;11.926;2022-10-29T04:07:52;9.87;;;2.90;;
21697;SDS011;11010;49.548;11.926;2022-10-29T04:10:20;10.57;;;2.90;;
21697;SDS011;11010;49.548;11.926;2022-10-29T04:12:48;8.30;;;3.00;;
21697;SDS011;11010;49.548;11.926;2022-10-29T04:15:16;11.17;;;3.10;;
21697;SDS011;11010;49.548;11.926;2022-10-29T04:17:44;11.27;;;3.17;;
21697;SDS011;11010;49.548;11.926;2022-10-29T04:20:12;10.60;;;2.90;;
21697;SDS011;11010;49.548;11.926;2022-10-29T04:22:59;7.97;;;2.70;;
21697;SDS011;11010;49.548;11.926;2022-10-29T04:25:54;9.93;;;2.90;;
21697;SDS011;11010;49.548;11.926;2022-10-29T04:28:42;7.23;;;2.50;;
21697;SDS011;11010;49.548;11.926;2022-10-29T04:31:11;9.03;;;2.77;;
21697;SDS011;11010;49.548;11.926;2022-10-29T04:33:39;9.20;;;3.10;;
21697;SDS011;11010;49.548;11.926;2022-10-29T04:36:07;8.80;;;3.00;;
21697;SDS011;11010;49.548;11.926;2022-10-29T04:38:35;11.43;;;2.93;;
21697;SDS011;11010;49.548;11.926;2022-10-29T04:41:02;9.77;;;3.20;;
21697;SDS011;11010;49.548;11.926;2022-10-29T04:43:30;9.03;;;2.73;;
21697;SDS011;11010;49.548;11.926;2022-10-29T04:45:58;8.20;;;2.83;;
21697;SDS011;11010;49.548;11.926;2022-10-29T04:48:26;9.60;;;3.00;;
21697;SDS011;11010;49.548;11.926;2022-10-29T04:50:55;9.87;;;2.73;;
21697;SDS011;11010;49.548;11.926;2022-10-29T04:53:23;8.33;;;2.93;;
21697;SDS011;11010;49.548;11.926;2022-10-29T04:55:51;8.60;;;2.70;;
21697;SDS011;11010;49.548;11.926;2022-10-29T04:58:25;8.70;;;2.40;;
21697;SDS011;11010;49.548;11.926;2022-10-29T05:00:53;8.87;;;2.90;;
21697;SDS011;11010;49.548;11.926;2022-10-29T05:03:21;9.73;;;3.10;;
21697;SDS011;11010;49.548;11.926;2022-10-29T05:05:49;9.67;;;3.20;;
21697;SDS011;11010;49.548;11.926;2022-10-29T05:08:17;8.97;;;2.80;;
21697;SDS011;11010;49.548;11.926;2022-10-29T05:10:45;9.07;;;2.80;;
21697;SDS011;11010;49.548;11.926;2022-10-29T05:13:13;10.20;;;3.27;;
21697;SDS011;11010;49.548;11.926;2022-10-29T05:15:41;8.63;;;2.90;;
21697;SDS011;11010;49.548;11.926;2022-10-29T05:18:13;10.50;;;3.27;;
21697;SDS011;11010;49.548;11.926;2022-10-29T05:20:41;9.70;;;3.10;;
21697;SDS011;11010;49.548;11.926;2022-10-29T05:23:09;10.57;;;3.30;;
21697;SDS011;11010;49.548;11.926;2022-10-29T05:25:38;9.70;;;3.47;;
21697;SDS011;11010;49.548;11.926;2022-10-29T05:28:08;10.63;;;3.40;;
21697;SDS011;11010;49.548;11.926;2022-10-29T05:30:38;8.90;;;3.20;;
21697;SDS011;11010;49.548;11.926;2022-10-29T05:33:07;9.53;;;3.20;;
21697;SDS011;11010;49.548;11.926;2022-10-29T05:35:35;11.13;;;3.30;;
21697;SDS011;11010;49.548;11.926;2022-10-29T05:38:04;9.50;;;3.00;;
21697;SDS011;11010;49.548;11.926;2022-10-29T05:40:32;11.03;;;3.03;;
21697;SDS011;11010;49.548;11.926;2022-10-29T05:42:59;11.03;;;3.53;;
21697;SDS011;11010;49.548;11.926;2022-10-29T05:45:27;9.33;;;3.30;;
21697;SDS011;11010;49.548;11.926;2022-10-29T05:47:56;12.40;;;3.53;;
21697;SDS011;11010;49.548;11.926;2022-10-29T05:50:24;9.43;;;3.30;;
21697;SDS011;11010;49.548;11.926;2022-10-29T05:52:56;11.77;;;4.10;;
21697;SDS011;11010;49.548;11.926;2022-10-29T05:55:25;10.43;;;4.03;;
21697;SDS011;11010;49.548;11.926;2022-10-29T05:57:56;11.77;;;5.10;;
21697;SDS011;11010;49.548;11.926;2022-10-29T06:00:25;9.20;;;3.43;;
21697;SDS011;11010;49.548;11.926;2022-10-29T06:02:53;9.50;;;3.50;;
21697;SDS011;11010;49.548;11.926;2022-10-29T06:05:22;11.80;;;3.40;;
21697;SDS011;11010;49.548;11.926;2022-10-29T06:07:56;10.50;;;3.20;;
21697;SDS011;11010;49.548;11.926;2022-10-29T06:10:25;10.10;;;3.80;;
21697;SDS011;11010;49.548;11.926;2022-10-29T06:12:54;10.80;;;3.90;;
21697;SDS011;11010;49.548;11.926;2022-10-29T06:15:22;11.17;;;3.90;;
21697;SDS011;11010;49.548;11.926;2022-10-29T06:17:50;9.57;;;3.30;;
21697;SDS011;11010;49.548;11.926;2022-10-29T06:20:18;8.70;;;3.00;;
21697;SDS011;11010;49.548;11.926;2022-10-29T06:22:47;9.43;;;3.40;;
21697;SDS011;11010;49.548;11.926;2022-10-29T06:25:23;10.07;;;3.10;;
21697;SDS011;11010;49.548;11.926;2022-10-29T06:28:04;10.17;;;3.10;;
21697;SDS011;11010;49.548;11.926;2022-10-29T06:30:32;11.57;;;3.60;;
21697;SDS011;11010;49.548;11.926;2022-10-29T06:33:01;12.27;;;3.30;;
21697;SDS011;11010;49.548;11.926;2022-10-29T06:35:29;9.27;;;3.17;;
21697;SDS011;11010;49.548;11.926;2022-10-29T06:37:57;10.87;;;3.70;;
21697;SDS011;11010;49.548;11.926;2022-10-29T06:40:26;10.63;;;3.30;;
21697;SDS011;11010;49.548;11.926;2022-10-29T06:43:03;10.67;;;3.50;;
21697;SDS011;11010;49.548;11.926;2022-10-29T06:45:31;10.50;;;3.50;;
21697;SDS011;11010;49.548;11.926;2022-10-29T06:48:00;9.80;;;3.60;;
21697;SDS011;11010;49.548;11.926;2022-10-29T06:50:28;10.40;;;3.50;;
21697;SDS011;11010;49.548;11.926;2022-10-29T06:52:57;11.63;;;3.70;;
21697;SDS011;11010;49.548;11.926;2022-10-29T06:55:26;11.07;;;3.67;;
21697;SDS011;11010;49.548;11.926;2022-10-29T06:58:00;10.80;;;3.50;;
21697;SDS011;11010;49.548;11.926;2022-10-29T07:00:29;12.43;;;3.70;;
21697;SDS011;11010;49.548;11.926;2022-10-29T07:02:57;10.23;;;3.60;;
21697;SDS011;11010;49.548;11.926;2022-10-29T07:05:26;12.43;;;3.77;;
21697;SDS011;11010;49.548;11.926;2022-10-29T07:07:54;11.40;;;4.00;;
21697;SDS011;11010;49.548;11.926;2022-10-29T07:10:24;10.83;;;3.97;;
21697;SDS011;11010;49.548;11.926;2022-10-29T07:12:52;12.30;;;4.00;;
21697;SDS011;11010;49.548;11.926;2022-10-29T07:15:20;9.40;;;3.90;;
21697;SDS011;11010;49.548;11.926;2022-10-29T07:17:56;10.87;;;3.67;;
21697;SDS011;11010;49.548;11.926;2022-10-29T07:20:25;10.80;;;4.30;;
21697;SDS011;11010;49.548;11.926;2022-10-29T07:22:53;10.67;;;4.50;;
21697;SDS011;11010;49.548;11.926;2022-10-29T07:25:23;10.77;;;4.70;;
21697;SDS011;11010;49.548;11.926;2022-10-29T07:27:51;10.73;;;4.53;;
21697;SDS011;11010;49.548;11.926;2022-10-29T07:30:19;11.97;;;4.53;;
21697;SDS011;11010;49.548;11.926;2022-10-29T07:32:47;12.70;;;5.20;;
21697;SDS011;11010;49.548;11.926;2022-10-29T07:35:15;13.03;;;5.63;;
21697;SDS011;11010;49.548;11.926;2022-10-29T07:37:43;10.17;;;4.73;;
21697;SDS011;11010;49.548;11.926;2022-10-29T07:40:11;13.63;;;4.97;;
21697;SDS011;11010;49.548;11.926;2022-10-29T07:42:39;10.10;;;4.50;;
21697;SDS011;11010;49.548;11.926;2022-10-29T07:45:07;10.23;;;4.73;;
21697;SDS011;11010;49.548;11.926;2022-10-29T07:47:35;11.63;;;4.77;;
21697;SDS011;11010;49.548;11.926;2022-10-29T07:50:03;11.33;;;4.30;;
21697;SDS011;11010;49.548;11.926;2022-10-29T07:52:31;11.03;;;3.97;;
21697;SDS011;11010;49.548;11.926;2022-10-29T07:54:59;12.87;;;4.13;;
21697;SDS011;11010;49.548;11.926;2022-10-29T07:57:28;10.37;;;4.33;;
21697;SDS011;11010;49.548;11.926;2022-10-29T07:59:57;9.47;;;4.03;;
21697;SDS011;11010;49.548;11.926;2022-10-29T08:02:26;11.37;;;4.43;;
21697;SDS011;11010;49.548;11.926;2022-10-29T08:04:54;9.97;;;4.37;;
21697;SDS011;11010;49.548;11.926;2022-10-29T08:07:22;11.27;;;4.13;;
21697;SDS011;11010;49.548;11.926;2022-10-29T08:09:50;10.03;;;4.20;;
21697;SDS011;11010;49.548;11.926;2022-10-29T08:12:18;10.33;;;3.97;;
21697;SDS011;11010;49.548;11.926;2022-10-29T08:14:46;10.57;;;4.50;;
21697;SDS011;11010;49.548;11.926;2022-10-29T08:17:13;10.47;;;4.27;;
21697;SDS011;11010;49.548;11.926;2022-10-29T08:19:41;11.07;;;4.00;;
21697;SDS011;11010;49.548;11.926;2022-10-29T08:22:09;11.87;;;4.20;;
21697;SDS011;11010;49.548;11.926;2022-10-29T08:24:37;9.40;;;3.83;;
21697;SDS011;11010;49.548;11.926;2022-10-29T08:27:05;11.53;;;4.03;;
21697;SDS011;11010;49.548;11.926;2022-10-29T08:29:33;10.47;;;3.93;;
21697;SDS011;11010;49.548;11.926;2022-10-29T08:32:01;12.50;;;4.17;;
21697;SDS011;11010;49.548;11.926;2022-10-29T08:34:29;10.43;;;4.23;;
21697;SDS011;11010;49.548;11.926;2022-10-29T08:36:57;9.70;;;3.97;;
21697;SDS011;11010;49.548;11.926;2022-10-29T08:39:25;13.60;;;4.20;;
21697;SDS011;11010;49.548;11.926;2022-10-29T08:48:02;12.10;;;3.60;;
21697;SDS011;11010;49.548;11.926;2022-10-29T08:50:35;11.70;;;4.00;;
21697;SDS011;11010;49.548;11.926;2022-10-29T08:53:12;9.40;;;3.90;;
21697;SDS011;11010;49.548;11.926;2022-10-29T08:55:52;10.07;;;4.50;;
21697;SDS011;11010;49.548;11.926;2022-10-29T08:58:34;15.13;;;4.43;;
21697;SDS011;11010;49.548;11.926;2022-10-29T09:01:06;10.63;;;4.30;;
21697;SDS011;11010;49.548;11.926;2022-10-29T09:03:36;10.33;;;4.23;;
21697;SDS011;11010;49.548;11.926;2022-10-29T09:06:13;11.03;;;4.70;;
21697;SDS011;11010;49.548;11.926;2022-10-29T09:11:34;12.97;;;4.90;;
21697;SDS011;11010;49.548;11.926;2022-10-29T09:16:42;11.83;;;4.60;;
21697;SDS011;11010;49.548;11.926;2022-10-29T09:27:20;10.10;;;4.23;;
21697;SDS011;11010;49.548;11.926;2022-10-29T09:32:24;17.77;;;4.90;;
21697;SDS011;11010;49.548;11.926;2022-10-29T09:34:56;12.93;;;5.13;;
21697;SDS011;11010;49.548;11.926;2022-10-29T09:37:35;13.73;;;5.00;;
21697;SDS011;11010;49.548;11.926;2022-10-29T09:40:05;12.23;;;4.90;;
21697;SDS011;11010;49.548;11.926;2022-10-29T09:42:34;13.97;;;4.60;;
21697;SDS011;11010;49.548;11.926;2022-10-29T09:45:04;11.13;;;4.47;;
21697;SDS011;11010;49.548;11.926;2022-10-29T09:47:42;11.17;;;4.70;;
21697;SDS011;11010;49.548;11.926;2022-10-29T09:52:59;13.23;;;5.17;;
21697;SDS011;11010;49.548;11.926;2022-10-29T09:55:28;11.93;;;5.03;;
21697;SDS011;11010;49.548;11.926;2022-10-29T09:57:58;13.30;;;4.80;;
21697;SDS011;11010;49.548;11.926;2022-10-29T10:00:27;11.37;;;4.80;;
21697;SDS011;11010;49.548;11.926;2022-10-29T10:03:00;14.23;;;5.00;;
21697;SDS011;11010;49.548;11.926;2022-10-29T10:05:31;14.57;;;5.70;;
21697;SDS011;11010;49.548;11.926;2022-10-29T10:08:03;13.80;;;5.33;;
21697;SDS011;11010;49.548;11.926;2022-10-29T10:10:33;12.73;;;4.93;;
21697;SDS011;11010;49.548;11.926;2022-10-29T10:13:02;13.47;;;5.53;;
21697;SDS011;11010;49.548;11.926;2022-10-29T10:15:34;14.63;;;5.47;;
21697;SDS011;11010;49.548;11.926;2022-10-29T10:18:15;14.93;;;5.77;;
21697;SDS011;11010;49.548;11.926;2022-10-29T10:20:45;12.90;;;5.20;;
21697;SDS011;11010;49.548;11.926;2022-10-29T10:23:22;12.27;;;5.17;;
21697;SDS011;11010;49.548;11.926;2022-10-29T10:25:51;13.13;;;5.13;;
21697;SDS011;11010;49.548;11.926;2022-10-29T10:33:34;14.60;;;5.73;;
21697;SDS011;11010;49.548;11.926;2022-10-29T10:36:06;12.33;;;4.70;;
21697;SDS011;11010;49.548;11.926;2022-10-29T10:38:39;12.37;;;5.30;;
21697;SDS011;11010;49.548;11.926;2022-10-29T10:41:08;12.87;;;5.47;;
21697;SDS011;11010;49.548;11.926;2022-10-29T10:43:37;14.30;;;5.27;;
21697;SDS011;11010;49.548;11.926;2022-10-29T10:46:12;13.27;;;5.07;;
21697;SDS011;11010;49.548;11.926;2022-10-29T10:48:42;13.40;;;5.27;;
21697;SDS011;11010;49.548;11.926;2022-10-29T10:51:31;15.37;;;4.87;;
21697;SDS011;11010;49.548;11.926;2022-10-29T10:53:59;11.90;;;5.00;;
21697;SDS011;11010;49.548;11.926;2022-10-29T10:56:29;14.27;;;5.07;;
21697;SDS011;11010;49.548;11.926;2022-10-29T10:58:59;12.33;;;5.03;;
21697;SDS011;11010;49.548;11.926;2022-10-29T11:01:47;12.33;;;5.13;;
21697;SDS011;11010;49.548;11.926;2022-10-29T11:04:23;12.20;;;4.90;;
21697;SDS011;11010;49.548;11.926;2022-10-29T11:06:54;13.37;;;4.63;;
21697;SDS011;11010;49.548;11.926;2022-10-29T11:14:38;15.10;;;5.40;;
21697;SDS011;11010;49.548;11.926;2022-10-29T11:20:12;13.97;;;5.20;;
21697;SDS011;11010;49.548;11.926;2022-10-29T11:25:15;15.60;;;5.40;;
21697;SDS011;11010;49.548;11.926;2022-10-29T11:27:46;12.57;;;5.03;;
21697;SDS011;11010;49.548;11.926;2022-10-29T11:30:15;13.77;;;5.10;;
21697;SDS011;11010;49.548;11.926;2022-10-29T11:32:52;15.33;;;5.47;;
21697;SDS011;11010;49.548;11.926;2022-10-29T11:38:09;13.75;;;5.18;;
21697;SDS011;11010;49.548;11.926;2022-10-29T11:43:17;13.63;;;5.15;;
21697;SDS011;11010;49.548;11.926;2022-10-29T11:50:57;12.32;;;4.50;;
21697;SDS011;11010;49.548;11.926;2022-10-29T11:56:02;13.23;;;4.95;;
21697;SDS011;11010;49.548;11.926;2022-10-29T11:58:36;14.85;;;4.95;;
21697;SDS011;11010;49.548;11.926;2022-10-29T12:01:16;13.40;;;5.25;;
21697;SDS011;11010;49.548;11.926;2022-10-29T12:06:22;12.32;;;4.68;;
21697;SDS011;11010;49.548;11.926;2022-10-29T12:11:40;12.70;;;4.60;;
21697;SDS011;11010;49.548;11.926;2022-10-29T12:17:14;14.07;;;4.38;;
21697;SDS011;11010;49.548;11.926;2022-10-29T12:19:49;12.52;;;4.63;;
21697;SDS011;11010;49.548;11.926;2022-10-29T12:27:44;12.15;;;4.35;;
21697;SDS011;11010;49.548;11.926;2022-10-29T12:30:16;13.15;;;4.47;;
21697;SDS011;11010;49.548;11.926;2022-10-29T12:35:28;13.52;;;4.75;;
21697;SDS011;11010;49.548;11.926;2022-10-29T12:40:29;12.73;;;4.60;;
21697;SDS011;11010;49.548;11.926;2022-10-29T12:43:01;15.40;;;4.40;;
21697;SDS011;11010;49.548;11.926;2022-10-29T12:45:34;14.90;;;4.65;;
21697;SDS011;11010;49.548;11.926;2022-10-29T12:53:34;15.48;;;4.53;;
21697;SDS011;11010;49.548;11.926;2022-10-29T12:56:04;11.85;;;4.00;;
21697;SDS011;11010;49.548;11.926;2022-10-29T12:58:43;14.95;;;4.63;;
21697;SDS011;11010;49.548;11.926;2022-10-29T13:06:56;12.68;;;4.43;;
21697;SDS011;11010;49.548;11.926;2022-10-29T13:09:25;12.90;;;4.90;;
21697;SDS011;11010;49.548;11.926;2022-10-29T13:14:26;14.15;;;5.40;;
21697;SDS011;11010;49.548;11.926;2022-10-29T13:16:55;12.10;;;4.60;;
21697;SDS011;11010;49.548;11.926;2022-10-29T13:19:32;14.05;;;5.15;;
21697;SDS011;11010;49.548;11.926;2022-10-29T13:24:31;10.25;;;4.30;;
21697;SDS011;11010;49.548;11.926;2022-10-29T13:32:36;16.00;;;4.40;;
21697;SDS011;11010;49.548;11.926;2022-10-29T13:35:36;12.80;;;4.35;;
21697;SDS011;11010;49.548;11.926;2022-10-29T13:37:53;12.82;;;4.20;;
21697;SDS011;11010;49.548;11.926;2022-10-29T13:43:11;10.93;;;3.83;;
21697;SDS011;11010;49.548;11.926;2022-10-29T13:45:38;11.07;;;3.97;;
21697;SDS011;11010;49.548;11.926;2022-10-29T13:48:27;14.70;;;4.13;;
21697;SDS011;11010;49.548;11.926;2022-10-29T13:50:56;11.18;;;4.15;;
21697;SDS011;11010;49.548;11.926;2022-10-29T13:53:29;10.60;;;3.97;;
21697;SDS011;11010;49.548;11.926;2022-10-29T13:55:58;12.15;;;3.97;;
21697;SDS011;11010;49.548;11.926;2022-10-29T13:58:28;11.73;;;4.10;;
21697;SDS011;11010;49.548;11.926;2022-10-29T14:00:56;11.35;;;3.95;;
21697;SDS011;11010;49.548;11.926;2022-10-29T14:03:38;11.52;;;3.90;;
21697;SDS011;11010;49.548;11.926;2022-10-29T14:06:08;11.13;;;4.13;;
21697;SDS011;11010;49.548;11.926;2022-10-29T14:09:39;11.60;;;3.90;;
21697;SDS011;11010;49.548;11.926;2022-10-29T14:11:38;13.73;;;3.75;;
21697;SDS011;11010;49.548;11.926;2022-10-29T14:14:17;13.73;;;3.97;;
21697;SDS011;11010;49.548;11.926;2022-10-29T14:16:47;14.68;;;4.18;;
21697;SDS011;11010;49.548;11.926;2022-10-29T14:19:19;15.13;;;4.18;;
21697;SDS011;11010;49.548;11.926;2022-10-29T14:21:47;12.15;;;4.00;;
21697;SDS011;11010;49.548;11.926;2022-10-29T14:24:15;15.57;;;3.78;;
21697;SDS011;11010;49.548;11.926;2022-10-29T14:26:43;12.50;;;3.90;;
21697;SDS011;11010;49.548;11.926;2022-10-29T14:29:12;13.98;;;4.18;;
21697;SDS011;11010;49.548;11.926;2022-10-29T14:31:41;12.60;;;4.55;;
21697;SDS011;11010;49.548;11.926;2022-10-29T14:34:20;12.30;;;4.03;;
21697;SDS011;11010;49.548;11.926;2022-10-29T14:36:48;15.50;;;4.30;;
21697;SDS011;11010;49.548;11.926;2022-10-29T14:39:22;10.63;;;4.13;;
21697;SDS011;11010;49.548;11.926;2022-10-29T14:42:03;14.43;;;4.00;;
21697;SDS011;11010;49.548;11.926;2022-10-29T14:44:31;12.68;;;3.90;;
21697;SDS011;11010;49.548;11.926;2022-10-29T14:47:02;9.23;;;3.40;;
21697;SDS011;11010;49.548;11.926;2022-10-29T14:49:31;11.75;;;3.80;;
21697;SDS011;11010;49.548;11.926;2022-10-29T14:52:04;11.93;;;3.50;;
21697;SDS011;11010;49.548;11.926;2022-10-29T14:54:34;11.13;;;4.00;;
21697;SDS011;11010;49.548;11.926;2022-10-29T14:57:05;13.73;;;3.75;;
21697;SDS011;11010;49.548;11.926;2022-10-29T14:59:34;10.55;;;3.67;;
21697;SDS011;11010;49.548;11.926;2022-10-29T15:02:03;12.02;;;3.85;;
21697;SDS011;11010;49.548;11.926;2022-10-29T15:04:57;12.43;;;3.80;;
21697;SDS011;11010;49.548;11.926;2022-10-29T15:07:32;12.40;;;3.30;;
21697;SDS011;11010;49.548;11.926;2022-10-29T15:12:36;12.35;;;3.50;;
21697;SDS011;11010;49.548;11.926;2022-10-29T15:15:09;13.60;;;3.88;;
21697;SDS011;11010;49.548;11.926;2022-10-29T15:17:40;11.90;;;3.60;;
21697;SDS011;11010;49.548;11.926;2022-10-29T15:20:17;13.63;;;3.22;;
21697;SDS011;11010;49.548;11.926;2022-10-29T15:22:46;10.55;;;3.40;;
21697;SDS011;11010;49.548;11.926;2022-10-29T15:25:22;12.75;;;3.92;;
21697;SDS011;11010;49.548;11.926;2022-10-29T15:27:50;13.18;;;3.50;;
21697;SDS011;11010;49.548;11.926;2022-10-29T15:30:19;11.07;;;3.40;;
21697;SDS011;11010;49.548;11.926;2022-10-29T15:32:47;14.70;;;3.72;;
21697;SDS011;11010;49.548;11.926;2022-10-29T15:35:19;14.68;;;3.92;;
21697;SDS011;11010;49.548;11.926;2022-10-29T15:37:49;11.05;;;3.78;;
21697;SDS011;11010;49.548;11.926;2022-10-29T15:40:18;11.05;;;3.70;;
21697;SDS011;11010;49.548;11.926;2022-10-29T15:42:47;10.60;;;3.83;;
21697;SDS011;11010;49.548;11.926;2022-10-29T15:45:22;13.13;;;3.83;;
21697;SDS011;11010;49.548;11.926;2022-10-29T15:47:51;10.70;;;3.38;;
21697;SDS011;11010;49.548;11.926;2022-10-29T15:50:23;12.85;;;3.85;;
21697;SDS011;11010;49.548;11.926;2022-10-29T15:52:55;9.98;;;3.47;;
21697;SDS011;11010;49.548;11.926;2022-10-29T15:55:25;11.45;;;3.60;;
21697;SDS011;11010;49.548;11.926;2022-10-29T15:58:09;13.00;;;3.80;;
21697;SDS011;11010;49.548;11.926;2022-10-29T16:00:38;11.73;;;3.60;;
21697;SDS011;11010;49.548;11.926;2022-10-29T16:03:25;12.75;;;3.47;;
21697;SDS011;11010;49.548;11.926;2022-10-29T16:05:54;9.95;;;2.88;;
21697;SDS011;11010;49.548;11.926;2022-10-29T16:11:04;13.15;;;3.80;;
21697;SDS011;11010;49.548;11.926;2022-10-29T16:13:35;11.60;;;3.40;;
21697;SDS011;11010;49.548;11.926;2022-10-29T16:16:03;10.13;;;3.80;;
21697;SDS011;11010;49.548;11.926;2022-10-29T16:18:31;9.93;;;3.42;;
21697;SDS011;11010;49.548;11.926;2022-10-29T16:20:59;11.05;;;3.70;;
21697;SDS011;11010;49.548;11.926;2022-10-29T16:23:28;13.52;;;3.38;;
21697;SDS011;11010;49.548;11.926;2022-10-29T16:25:56;14.40;;;4.28;;
21697;SDS011;11010;49.548;11.926;2022-10-29T16:28:27;11.40;;;3.15;;
21697;SDS011;11010;49.548;11.926;2022-10-29T16:30:56;12.32;;;3.80;;
21697;SDS011;11010;49.548;11.926;2022-10-29T16:33:25;10.02;;;3.45;;
21697;SDS011;11010;49.548;11.926;2022-10-29T16:35:53;10.80;;;3.70;;
21697;SDS011;11010;49.548;11.926;2022-10-29T16:38:21;13.48;;;4.43;;
21697;SDS011;11010;49.548;11.926;2022-10-29T16:40:49;10.88;;;3.95;;
21697;SDS011;11010;49.548;11.926;2022-10-29T16:43:17;11.43;;;3.88;;
21697;SDS011;11010;49.548;11.926;2022-10-29T16:45:45;14.52;;;4.10;;
21697;SDS011;11010;49.548;11.926;2022-10-29T16:48:13;15.00;;;4.10;;
21697;SDS011;11010;49.548;11.926;2022-10-29T16:50:41;12.63;;;3.92;;
21697;SDS011;11010;49.548;11.926;2022-10-29T16:53:09;13.95;;;4.22;;
21697;SDS011;11010;49.548;11.926;2022-10-29T16:55:38;11.82;;;4.32;;